Tiempo atmosférico en la estación meteorológica de Fuente De Cantos, Badajoz (602 m.)



Fecha
DESCASC
Temp. máxima en grados centígrados (hora)
DESCASC
Temp. mínima en grados centígrados (hora)
DESCASC
Temp. media en grados centígrados
DESCASC
Racha de viento máxima en m/sg (hora)
DESCASC
Velocidad máxima media en intervalos de 10 minutos(hora)
DESCASC
Precipitaciones diarias en mm
DESCASC
Precipitaciones de 00:00 a 06:00 en mm
DESCASC
Precipitaciones de 06:00 a 12:00 en mm
DESCASC
Precipitaciones de 12:00 a 18:00 en mm
DESCASC
Precipitaciones de 18:00 a 24:00 en mm
DESCASC
18-01-2018 16.1 (14:50) 4 (08:00) 10.1 8.61 (05:00) 7.22 (05:00) 0 0 0 0 0
17-01-2018 12.5 (15:20) 6.3 (23:10) 9.4 8.33 (03:00) 6.39 (02:20) 0 0 0 0 0
16-01-2018 12.6 (16:00) 3.5 (03:10) 8.1 7.22 (18:40) 5.56 (17:30) 0 0 0 0 0
15-01-2018 9.8 (15:30) 0.7 (05:30) 5.3 8.06 (14:30) 6.11 (14:30) 0 0 0 0 0
14-01-2018 7.3 (15:20) 2.1 (00:00) 4.7 8.06 (13:00) 5.56 (13:00) 5.4 0.2 4.8 0.4 0
13-01-2018 9.6 (16:50) 4 (00:00) 6.8 12.78 (13:00) 9.17 (13:10) 4.8 0 4.8 0 0
12-01-2018 10.2 (15:30) 1.9 (00:00) 6 6.11 (23:40) 5 (23:40) 0 0 0 0 0
11-01-2018 10.2 (16:10) 3.2 (00:00) 6.7 11.94 (16:40) 9.72 (16:30) 0.2 0.2 0 0 0
10-01-2018 12.3 (15:40) 5.6 (00:00) 9 14.44 (15:10) 10.83 (15:20) 1.4 0.2 0 1.2 0
09-01-2018 8.9 (22:30) 1.7 (00:00) 5.3 16.11 (19:40) 10.56 (20:20) 4.8 0 0 4.8 0
08-01-2018 6.1 (16:10) 1.3 (00:00) 3.7 7.5 (08:30) 5.83 (08:40) 6 5 1 0 0
07-01-2018 4.8 (15:50) 0 (00:00) 2.4 9.17 (08:30) 7.22 (08:30) 0.6 0 0.4 0.2 0
06-01-2018 7.3 (14:30) 0.7 (00:00) 4 13.89 (15:00) 10.28 (14:10) 3.4 3.4 0 0 0
05-01-2018 12.3 (15:00) 6.2 (00:00) 9.3 14.44 (15:40) 11.39 (15:40) 20 0 0.2 5.4 14.4
04-01-2018 11.8 (16:40) 9.7 (22:30) 10.8 6.11 (13:20) 4.72 (13:20) 0 0 0 0 0
03-01-2018 12.8 (15:10) 9.1 (00:00) 11 6.67 (19:40) 4.44 (15:40) 0.2 0 0.2 0 0
02-01-2018 12.7 (15:40) 4.5 (00:00) 8.6 6.11 (20:10) 4.72 (20:10) 0.2 0 0.2 0 0
01-01-2018 11.5 (15:50) 3.9 (00:00) 7.7 6.94 (14:40) 5.83 (14:40) 0.2 0.2 0 0 0
31-12-2017 12.9 (15:10) 6 (00:00) 9.4 13.33 (16:50) 10 (15:40) 0.2 0 0 0 0.2
30-12-2017 15 (16:10) 8.8 (00:00) 11.9 3.33 (13:50) 2.5 (19:20) 0 0 0 0 0
29-12-2017 13.3 (13:50) 10.5 (00:00) 11.9 9.44 (13:50) 7.22 (13:50) 1 0.2 0.8 0 0
28-12-2017 12.7 (16:20) 8.6 (00:00) 10.7 15 (03:40) 10.83 (03:40) 0.6 0.4 0.2 0 0
27-12-2017 10.9 (05:00) 7.6 (00:00) 9.2 20.56 (05:00) 15.83 (05:00) 0.8 0.8 0 0 0
26-12-2017 9.3 (03:10) 5.9 (00:00) 7.6 15.28 (23:59) 12.5 (23:59) 2.8 2.8 0 0 0
25-12-2017 11.7 (13:40) 6.6 (00:00) 9.1 11.67 (07:30) 9.44 (07:30) 0.4 0 0 0 0.4
24-12-2017 13.8 (16:10) 6 (00:00) 9.9 8.61 (10:50) 6.94 (10:50) 0 0 0 0 0

Gráficas

Temp. máximas Temp. mínimas Temp. medias Precipitaciones Rachas de viento máximas Velocidades máximas media en intervalos de 10 minutos

Datos horarios

Fecha y hora oficial Temperatura (ºC) Velocidad del viento (km/h) Dirección del viento Racha (km/h) Dirección de racha Precipitación (mm) Presión (hPa) Tendencia (hPa) Humedad (%)
2018-01-22 23:00:00 7.4 3 Sudoeste 6 Sudoeste 0 -- -- 97
2018-01-22 22:00:00 7.6 4 Oeste 6 Oeste 0 -- -- 96
2018-01-22 21:00:00 7.5 4 Oeste 12 Noroeste 0 -- -- 95
2018-01-22 20:00:00 8.5 11 Noroeste 15 Norte 0 -- -- 91
2018-01-22 19:00:00 9.6 12 Norte 17 Norte 0 -- -- 86
2018-01-22 18:00:00 13 13 Noroeste 17 Noroeste 0 -- -- 74
2018-01-22 17:00:00 14.3 10 Noroeste 21 Noroeste 0 -- -- 63
2018-01-22 16:00:00 14.4 9 Noroeste 14 Noroeste 0 -- -- 73
2018-01-22 15:00:00 13.6 7 Noroeste 15 Oeste 0 -- -- 78
2018-01-22 14:00:00 12.8 10 Noroeste 13 Noroeste 0 -- -- 80
2018-01-22 13:00:00 12 4 Noroeste 8 Noroeste 0 -- -- 85
2018-01-22 12:00:00 10 3 Sudoeste 6 Sudoeste 0 -- -- 99
2018-01-22 11:00:00 7.6 0 Calma 8 Sudeste 0 -- -- 100
2018-01-22 10:00:00 5 2 Sudeste 8 Norte 0 -- -- 99
2018-01-22 09:00:00 5.1 4 Norte 5 Norte 0.2 -- -- 98
2018-01-22 08:00:00 5.6 2 Norte 5 Noroeste 0 -- -- 98
2018-01-22 07:00:00 7.1 0 Calma 5 Sudeste 0 -- -- 98
2018-01-22 06:00:00 5.3 0 Calma 6 Oeste 0 -- -- 98
2018-01-22 05:00:00 5.8 4 Oeste 8 Oeste 0 -- -- 97
2018-01-22 04:00:00 7.6 4 Oeste 5 Oeste 0 -- -- 95
2018-01-22 03:00:00 8.4 0 Calma 8 Sudeste 0 -- -- 95
2018-01-22 02:00:00 8.6 0 Calma 2 Sudoeste 0 -- -- 94
2018-01-22 01:00:00 8.8 0 Calma 4 Sudeste 0 -- -- 93
2018-01-22 00:00:00 8.4 4 Sur 8 Sudoeste 0 -- -- 93
2018-01-21 23:00:00 8.1 5 Sudoeste 7 Sudoeste 0 -- -- 93
2018-01-21 22:00:00 8.2 5 Sudoeste 9 Sudoeste 0 -- -- 93
2018-01-21 21:00:00 8.3 4 Sur 8 Noroeste 0 -- -- 94
2018-01-21 20:00:00 8.5 5 Noroeste 15 Noroeste 0 -- -- 92
2018-01-21 19:00:00 10.2 10 Noroeste 17 Noroeste 0 -- -- 86
2018-01-21 18:00:00 12.6 14 Noroeste 17 Noroeste 0 -- -- 76
2018-01-21 17:00:00 13.7 9 Oeste 13 Oeste 0 -- -- 73
2018-01-21 16:00:00 13.4 12 Noroeste 17 Noroeste 0 -- -- 74
2018-01-21 15:00:00 13.1 13 Noroeste 18 Noroeste 0 -- -- 75
2018-01-21 14:00:00 12 9 Noroeste 15 Noroeste 0 -- -- 79
2018-01-21 13:00:00 10.9 10 Noroeste 18 Noroeste 0 -- -- 80
2018-01-21 12:00:00 9.4 5 Oeste 13 Oeste 0 -- -- 84
2018-01-21 11:00:00 8 9 Oeste 12 Oeste 0 -- -- 90
2018-01-21 10:00:00 6.1 8 Sudoeste 12 Sudoeste 0 -- -- 95
2018-01-21 09:00:00 4.8 7 Oeste 10 Sudoeste 0 -- -- 97
2018-01-21 08:00:00 4.4 7 Sudoeste 10 Sudoeste 0 -- -- 96
2018-01-21 07:00:00 4.4 7 Sudoeste 9 Sudoeste 0 -- -- 96
2018-01-21 06:00:00 4 7 Sudoeste 9 Sudoeste 0 -- -- 94
2018-01-21 05:00:00 4.6 4 Sudoeste 11 Noroeste 0 -- -- 91
2018-01-21 04:00:00 4.9 8 Noroeste 10 Noroeste 0 -- -- 90
2018-01-21 03:00:00 5.9 6 Sudoeste 10 Sudoeste 0 -- -- 86
2018-01-21 02:00:00 6 7 Sudoeste 10 Sudoeste 0 -- -- 81
2018-01-21 01:00:00 6.8 5 Sudoeste 10 Oeste 0 -- -- 73
2018-01-21 00:00:00 7.2 5 Oeste 9 Oeste 0 -- -- 70
2018-01-20 23:00:00 7.3 8 Oeste 15 Noroeste 0 -- -- 70
2018-01-20 22:00:00 7.6 11 Sudoeste 13 Oeste 0 -- -- 74
2018-01-20 21:00:00 8.9 13 Oeste 17 Oeste 0 -- -- 72
2018-01-20 20:00:00 9.6 17 Oeste 23 Oeste 0 -- -- 69
2018-01-20 19:00:00 10.7 13 Oeste 20 Oeste 0 -- -- 64
2018-01-20 18:00:00 13.2 16 Oeste 26 Oeste 0 -- -- 56
2018-01-20 17:00:00 15.5 19 Oeste 24 Oeste 0 -- -- 43
2018-01-20 16:00:00 15.2 12 Oeste 18 Oeste 0 -- -- 48
2018-01-20 15:00:00 14.5 12 Sudoeste 18 Noroeste 0 -- -- 51
2018-01-20 14:00:00 14.9 6 Oeste 14 Noroeste 0 -- -- 47
2018-01-20 13:00:00 13.5 6 Oeste 9 Oeste 0 -- -- 55
2018-01-20 12:00:00 11.9 5 Oeste 9 Oeste 0 -- -- 62
2018-01-20 11:00:00 10.1 4 Sudoeste 8 Oeste 0 -- -- 69
2018-01-20 10:00:00 8.2 4 Sudoeste 5 Sudoeste 0 -- -- 74
2018-01-20 09:00:00 6.4 4 Sudoeste 6 Oeste 0 -- -- 78
2018-01-20 08:00:00 6.4 6 Oeste 8 Sudoeste 0 -- -- 78
2018-01-20 07:00:00 6.4 4 Sudoeste 9 Oeste 0 -- -- 77
2018-01-20 06:00:00 6.8 5 Oeste 9 Oeste 0 -- -- 76
2018-01-20 05:00:00 6.6 4 Oeste 8 Oeste 0 -- -- 77
2018-01-20 04:00:00 7.3 4 Oeste 6 Sudoeste 0 -- -- 75
2018-01-20 03:00:00 7.6 5 Oeste 6 Oeste 0 -- -- 73
2018-01-20 02:00:00 8.2 4 Oeste 8 Sudoeste 0 -- -- 71
2018-01-20 01:00:00 9.3 6 Oeste 11 Sudoeste 0 -- -- 68
2018-01-20 00:00:00 9.5 6 Sudoeste 9 Sudoeste 0 -- -- 68
2018-01-19 23:00:00 9.3 7 Sudoeste 10 Sudoeste 0 -- -- 70
2018-01-19 22:00:00 9.6 5 Sudoeste 7 Sudoeste 0 -- -- 70
2018-01-19 21:00:00 9.2 4 Sudoeste 12 Oeste 0 -- -- 72
2018-01-19 20:00:00 9.5 11 Noroeste 22 Norte 0 -- -- 71
2018-01-19 19:00:00 10.5 14 Noroeste 20 Norte 0 -- -- 69
2018-01-19 18:00:00 13.2 14 Noroeste 17 Noroeste 0 -- -- 63
2018-01-19 17:00:00 14.8 9 Noroeste 18 Noroeste 0 -- -- 58
2018-01-19 16:00:00 15.1 9 Norte 15 Norte 0 -- -- 56
2018-01-19 15:00:00 14.4 5 Norte 15 Norte 0 -- -- 62
2018-01-19 14:00:00 12.9 15 Norte 22 Norte 0 -- -- 65
2018-01-19 13:00:00 11.8 14 Norte 23 Noroeste 0 -- -- 70
2018-01-19 12:00:00 10.5 3 Norte 8 Norte 0 -- -- 71
2018-01-19 11:00:00 8.2 2 Oeste 6 Norte 0 -- -- 76
2018-01-19 10:00:00 6.7 0 Calma 7 Noroeste 0 -- -- 77
2018-01-19 09:00:00 5.6 5 Noroeste 8 Noroeste 0 -- -- 79
2018-01-19 08:00:00 5.9 4 Noroeste 6 Noroeste 0 -- -- 78
2018-01-19 07:00:00 6.5 2 Noroeste 9 Noroeste 0 -- -- 76
2018-01-19 06:00:00 6.9 2 Sudoeste 6 Noroeste 0 -- -- 75
2018-01-19 05:00:00 6.5 3 Sudoeste 8 Sudeste 0 -- -- 77
2018-01-19 04:00:00 6.1 4 Sudeste 10 Noroeste 0 -- -- 80
2018-01-19 03:00:00 6.3 7 Noroeste 8 Noroeste 0 -- -- 80
2018-01-19 02:00:00 7.6 3 Noroeste 4 Noroeste 0 -- -- 74
2018-01-19 01:00:00 7.4 0 Calma 12 Norte 0 -- -- 78
2018-01-19 00:00:00 7.6 10 Nordeste 13 Norte 0 -- -- 75
2018-01-18 23:00:00 8 10 Nordeste 13 Nordeste 0 -- -- 74
2018-01-18 22:00:00 7 3 Noroeste 12 Nordeste 0 -- -- 83
2018-01-18 21:00:00 7.8 11 Nordeste 14 Nordeste 0 -- -- 81
2018-01-18 20:00:00 9 7 Nordeste 13 Norte 0 -- -- 77
2018-01-18 19:00:00 10 12 Norte 15 Norte 0 -- -- 76
2018-01-18 18:00:00 11.1 9 Norte 20 Norte 0 -- -- 74
2018-01-18 17:00:00 13.6 13 Norte 18 Norte 0 -- -- 67
2018-01-18 16:00:00 14.6 15 Norte 24 Norte 0 -- -- 61
2018-01-18 15:00:00 15.7 17 Nordeste 21 Nordeste 0 -- -- 57
2018-01-18 14:00:00 15.1 10 Este 15 Este 0 -- -- 54
2018-01-18 13:00:00 13.6 14 Nordeste 22 Este 0 -- -- 64
2018-01-18 12:00:00 11.7 17 Este 21 Este 0 -- -- 66
2018-01-18 11:00:00 9.2 14 Nordeste 18 Este 0 -- -- 75
2018-01-18 10:00:00 6.6 14 Este 20 Este 0 -- -- 83
2018-01-18 09:00:00 4.3 15 Nordeste 22 Este 0 -- -- 84
2018-01-18 08:00:00 4 16 Este 25 Este 0 -- -- 88
2018-01-18 07:00:00 4.7 22 Este 28 Nordeste 0 -- -- 88
2018-01-18 06:00:00 5.5 22 Nordeste 30 Nordeste 0 -- -- 86
2018-01-18 05:00:00 5.5 26 Nordeste 31 Nordeste 0 -- -- 88
2018-01-18 04:00:00 5.7 17 Este 23 Este 0 -- -- 89
2018-01-18 03:00:00 5.6 14 Este 16 Nordeste 0 -- -- 92
2018-01-18 02:00:00 6.8 10 Nordeste 16 Nordeste 0 -- -- 88
2018-01-18 01:00:00 6.4 14 Nordeste 20 Nordeste 0 -- -- 91
2018-01-18 00:00:00 7.4 14 Nordeste 24 Nordeste 0 -- -- 90
2018-01-17 23:00:00 6.6 10 Este 21 Nordeste 0 -- -- 92
2018-01-17 22:00:00 6.7 16 Nordeste 19 Nordeste 0 -- -- 96
2018-01-17 21:00:00 7.5 5 Nordeste 15 Norte 0 -- -- 96
2018-01-17 20:00:00 7.7 13 Norte 15 Norte 0 -- -- 95
2018-01-17 19:00:00 9.1 10 Nordeste 17 Nordeste 0 -- -- 92
2018-01-17 18:00:00 11.2 12 Nordeste 19 Norte 0 -- -- 86
2018-01-17 17:00:00 12.1 13 Norte 20 Norte 0 -- -- 80
2018-01-17 16:00:00 12.3 14 Norte 24 Norte 0 -- -- 79
2018-01-17 15:00:00 12.4 15 Norte 23 Nordeste 0 -- -- 81
2018-01-17 14:00:00 11.6 19 Norte 26 Norte 0 -- -- 83
2018-01-17 13:00:00 10.8 12 Norte 28 Nordeste 0 -- -- 87
2018-01-17 12:00:00 10.1 16 Norte 22 Norte 0 -- -- 99
2018-01-17 11:00:00 8.5 13 Noroeste 17 Noroeste 0 -- -- 100
2018-01-17 10:00:00 7.2 12 Noroeste 16 Noroeste 0 -- -- 100
2018-01-17 09:00:00 7.3 8 Oeste 16 Noroeste 0 -- -- 100
2018-01-17 08:00:00 7.4 9 Noroeste 15 Noroeste 0 -- -- 99
2018-01-17 07:00:00 7.4 7 Noroeste 15 Norte 0 -- -- 100
2018-01-17 06:00:00 7.5 9 Norte 13 Norte 0 -- -- 99
2018-01-17 05:00:00 7.9 12 Norte 23 Noroeste 0 -- -- 99
2018-01-17 04:00:00 8.6 20 Norte 28 Noroeste 0 -- -- 99
2018-01-17 03:00:00 8.7 22 Noroeste 30 Noroeste 0 -- -- 99
2018-01-17 02:00:00 8.8 18 Noroeste 26 Norte 0 -- -- 99
2018-01-17 01:00:00 8.9 13 Noroeste 22 Noroeste 0 -- -- 99
2018-01-17 00:00:00 9 17 Noroeste 26 Noroeste 0 -- -- 99
2018-01-16 23:00:00 9 15 Noroeste 25 Noroeste 0 -- -- 98
2018-01-16 22:00:00 8.8 19 Noroeste 25 Noroeste 0 -- -- 98
2018-01-16 21:00:00 8.9 17 Noroeste 24 Noroeste 0 -- -- 97
2018-01-16 20:00:00 9 15 Noroeste 24 Noroeste 0 -- -- 96
2018-01-16 19:00:00 9.2 17 Oeste 26 Oeste 0 -- -- 95
2018-01-16 18:00:00 9.8 19 Oeste 24 Noroeste 0 -- -- 92
2018-01-16 17:00:00 11.5 14 Noroeste 24 Noroeste 0 -- -- 83
2018-01-16 16:00:00 12.6 11 Noroeste 16 Noroeste 0 -- -- 78
2018-01-16 15:00:00 12.2 9 Oeste 16 Oeste 0 -- -- 76
2018-01-16 14:00:00 11.4 6 Oeste 12 Oeste 0 -- -- 75
2018-01-16 13:00:00 10 7 Oeste 13 Oeste 0 -- -- 73
2018-01-16 12:00:00 8.7 11 Oeste 17 Oeste 0 -- -- 74
2018-01-16 11:00:00 7.7 9 Sudoeste 13 Sudoeste 0 -- -- 68
2018-01-16 10:00:00 6.4 6 Sudoeste 9 Sudoeste 0 -- -- 66
2018-01-16 09:00:00 5.5 6 Sudoeste 8 Sudoeste 0 -- -- 63
2018-01-16 08:00:00 5.5 4 Sudoeste 10 Sur 0 -- -- 64
2018-01-16 07:00:00 4.8 5 Sur 8 Sudoeste 0 -- -- 71
2018-01-16 06:00:00 4.8 5 Sur 6 Sudoeste 0 -- -- 76
2018-01-16 05:00:00 4.5 5 Sudoeste 6 Oeste 0 -- -- 79
2018-01-16 04:00:00 5.1 5 Oeste 9 Sur 0 -- -- 78
2018-01-16 03:00:00 3.7 5 Sur 6 Sur 0 -- -- 84
2018-01-16 02:00:00 5.2 3 Noroeste 4 Noroeste 0 -- -- 79
2018-01-16 01:00:00 4.7 2 Sur 4 Noroeste 0 -- -- 82
2018-01-16 00:00:00 5.1 0 Calma 5 Sudeste 0 -- -- 80
2018-01-15 23:00:00 5 4 Este 6 Norte 0 -- -- 81
2018-01-15 22:00:00 4.9 3 Norte 9 Norte 0 -- -- 83
2018-01-15 21:00:00 5 6 Noroeste 9 Noroeste 0 -- -- 84
2018-01-15 20:00:00 6.1 4 Noroeste 8 Norte 0 -- -- 79
2018-01-15 19:00:00 7 5 Noroeste 11 Norte 0 -- -- 76
2018-01-15 18:00:00 8.9 6 Norte 21 Norte 0 -- -- 71
2018-01-15 17:00:00 9.7 14 Norte 23 Nordeste 0 -- -- 67
2018-01-15 16:00:00 9.7 13 Nordeste 22 Nordeste 0 -- -- 67
2018-01-15 15:00:00 9.5 16 Nordeste 29 Nordeste 0 -- -- 66
2018-01-15 14:00:00 8.7 16 Nordeste 27 Nordeste 0 -- -- 72
2018-01-15 13:00:00 7.5 16 Nordeste 24 Nordeste 0 -- -- 73
2018-01-15 12:00:00 6.3 14 Nordeste 20 Nordeste 0 -- -- 78
2018-01-15 11:00:00 4 6 Noroeste 14 Norte 0 -- -- 88
2018-01-15 10:00:00 2.5 0 Calma 10 Este 0 -- -- 91
2018-01-15 09:00:00 1.2 5 Este 10 Nordeste 0 -- -- 94
2018-01-15 08:00:00 0.9 6 Nordeste 10 Norte 0 -- -- 94
2018-01-15 07:00:00 0.9 5 Norte 12 Norte 0 -- -- 94
2018-01-15 06:00:00 0.8 5 Noroeste 10 Norte 0 -- -- 93
2018-01-15 05:00:00 1.3 3 Norte 12 Norte 0 -- -- 91
2018-01-15 04:00:00 1.4 9 Norte 10 Norte 0 -- -- 92
2018-01-15 03:00:00 1.5 8 Nordeste 13 Norte 0 -- -- 92
2018-01-15 02:00:00 1.7 10 Norte 15 Norte 0 -- -- 90
2018-01-15 01:00:00 1.9 9 Norte 16 Norte 0 -- -- 90
2018-01-15 00:00:00 2.1 4 Noroeste 11 Norte 0 -- -- 92
2018-01-14 23:00:00 2.4 9 Norte 13 Norte 0 -- -- 91
2018-01-14 22:00:00 2.9 8 Norte 17 Norte 0 -- -- 89
2018-01-14 21:00:00 3.8 10 Noroeste 15 Noroeste 0 -- -- 89
2018-01-14 20:00:00 4.8 14 Noroeste 22 Norte 0 -- -- 85
2018-01-14 19:00:00 4.9 15 Noroeste 22 Noroeste 0 -- -- 85
2018-01-14 18:00:00 6.5 19 Noroeste 23 Noroeste 0 -- -- 76
2018-01-14 17:00:00 6.4 14 Noroeste 24 Noroeste 0 -- -- 79
2018-01-14 16:00:00 7.1 15 Noroeste 24 Noroeste 0 -- -- 76
2018-01-14 15:00:00 6.7 16 Noroeste 22 Noroeste 0 -- -- 79
2018-01-14 14:00:00 6.3 16 Noroeste 26 Noroeste 0.4 -- -- 88
2018-01-14 13:00:00 6.7 20 Oeste 29 Oeste 0 -- -- 86
2018-01-14 12:00:00 5.5 14 Noroeste 20 Noroeste 0 -- -- 93
2018-01-14 11:00:00 4.8 7 Sudoeste 12 Sudoeste 0 -- -- 97
2018-01-14 10:00:00 4.1 4 Sudoeste 8 Sudoeste 0.4 -- -- 98
2018-01-14 09:00:00 3.7 6 Oeste 26 Noroeste 4.4 -- -- 98
2018-01-14 08:00:00 5 4 Oeste 10 Oeste 0 -- -- 98
2018-01-14 07:00:00 4.7 4 Sudoeste 8 Oeste 0 -- -- 98
2018-01-14 06:00:00 4.5 5 Oeste 10 Sudoeste 0 -- -- 98
2018-01-14 05:00:00 4.6 8 Oeste 10 Oeste 0 -- -- 98
2018-01-14 04:00:00 4.5 8 Oeste 15 Sudoeste 0 -- -- 97
2018-01-14 03:00:00 4.8 10 Oeste 13 Oeste 0 -- -- 97
2018-01-14 02:00:00 4.9 7 Sudoeste 11 Sudoeste 0 -- -- 96
2018-01-14 01:00:00 5 6 Sudoeste 12 Sudoeste 0.2 -- -- 94
2018-01-14 00:00:00 5.3 5 Oeste 13 Sudoeste 0 -- -- 95
2018-01-13 23:00:00 5.3 8 Sudoeste 12 Sudoeste 0 -- -- 94
2018-01-13 22:00:00 4.7 7 Sudoeste 13 Sudoeste 0 -- -- 94
2018-01-13 21:00:00 5.1 5 Sudoeste 13 Noroeste 0 -- -- 92
2018-01-13 20:00:00 5.7 12 Noroeste 31 Noroeste 0 -- -- 92
2018-01-13 19:00:00 6.5 14 Oeste 26 Oeste 0 -- -- 87
2018-01-13 18:00:00 8.1 18 Oeste 36 Oeste 0 -- -- 80
2018-01-13 17:00:00 9.6 28 Oeste 38 Oeste 0 -- -- 79
2018-01-13 16:00:00 8.4 29 Oeste 42 Oeste 0 -- -- 83
2018-01-13 15:00:00 8 21 Oeste 41 Sudoeste 0 -- -- 91
2018-01-13 14:00:00 7.2 29 Sudoeste 42 Sur 0 -- -- 93
2018-01-13 13:00:00 7.3 32 Sudoeste 46 Sur 0 -- -- 90
2018-01-13 12:00:00 5.7 22 Sudeste 27 Sudeste 1 -- -- 95
2018-01-13 11:00:00 4.8 18 Sudeste 22 Sudeste 2.6 -- -- 94
2018-01-13 10:00:00 4.7 12 Este 16 Sudeste 1 -- -- 89
2018-01-13 09:00:00 5.7 8 Sur 18 Sudeste 0.2 -- -- 80
2018-01-13 08:00:00 4.9 14 Sudeste 17 Sudeste 0 -- -- 79
2018-01-13 07:00:00 4.9 7 Sudeste 9 Sur 0 -- -- 77
2018-01-13 06:00:00 5.1 3 Sur 5 Sudeste 0 -- -- 78
2018-01-13 05:00:00 4.9 0 Calma 9 Este 0 -- -- 77
2018-01-13 04:00:00 4.9 5 Sudeste 9 Sudeste 0 -- -- 79
2018-01-13 03:00:00 5.1 5 Sudoeste 13 Sudeste 0 -- -- 81
2018-01-13 02:00:00 5.4 6 Sur 18 Sudeste 0 -- -- 80
2018-01-13 01:00:00 5 14 Sudeste 18 Sudeste 0 -- -- 81
2018-01-13 00:00:00 5.6 13 Sudeste 22 Este 0 -- -- 77
2018-01-12 23:00:00 6.3 10 Este 12 Este 0 -- -- 77
2018-01-12 22:00:00 5.9 0 Calma 4 Sudeste 0 -- -- 78
2018-01-12 21:00:00 6 2 Sudeste 4 Sudoeste 0 -- -- 77
2018-01-12 20:00:00 6.2 3 Sudoeste 6 Oeste 0 -- -- 81
2018-01-12 19:00:00 7 3 Nordeste 6 Nordeste 0 -- -- 79
2018-01-12 18:00:00 8.5 3 Noroeste 6 Noroeste 0 -- -- 76
2018-01-12 17:00:00 9.3 5 Norte 10 Oeste 0 -- -- 67
2018-01-12 16:00:00 9.3 7 Noroeste 9 Oeste 0 -- -- 64
2018-01-12 15:00:00 9.6 6 Oeste 10 Oeste 0 -- -- 63
2018-01-12 14:00:00 8.8 2 Este 17 Este 0 -- -- 66
2018-01-12 13:00:00 7.7 7 Este 12 Sudeste 0 -- -- 66
2018-01-12 12:00:00 6.5 6 Sudeste 9 Sudeste 0 -- -- 78
2018-01-12 11:00:00 5.7 4 Este 11 Este 0 -- -- 82
2018-01-12 10:00:00 4.2 3 Sudeste 5 Sudeste 0 -- -- 85
2018-01-12 09:00:00 2.2 3 Sudeste 4 Sudeste 0 -- -- 92
2018-01-12 08:00:00 1.9 3 Sur 6 Sudoeste 0 -- -- 94
2018-01-12 07:00:00 2.2 3 Sur 5 Sur 0 -- -- 94
2018-01-12 06:00:00 2.3 0 Calma 4 Sudoeste 0 -- -- 96
2018-01-12 05:00:00 2.3 2 Noroeste 7 Sudoeste 0 -- -- 96
2018-01-12 04:00:00 2.7 2 Sudoeste 7 Noroeste 0 -- -- 95
2018-01-12 03:00:00 2.9 3 Noroeste 6 Sudoeste 0 -- -- 95
2018-01-12 02:00:00 3.1 4 Oeste 8 Oeste 0 -- -- 93
2018-01-12 01:00:00 3.6 4 Sudoeste 9 Oeste 0 -- -- 93
2018-01-12 00:00:00 4 5 Sudoeste 9 Noroeste 0 -- -- 92
2018-01-11 23:00:00 4.3 9 Oeste 12 Oeste 0 -- -- 89
2018-01-11 22:00:00 4.8 8 Oeste 13 Oeste 0 -- -- 88
2018-01-11 21:00:00 5 2 Sudoeste 23 Noroeste 0 -- -- 86
2018-01-11 20:00:00 5.7 20 Noroeste 24 Noroeste 0 -- -- 85
2018-01-11 19:00:00 6.3 15 Noroeste 32 Noroeste 0 -- -- 84
2018-01-11 18:00:00 8.1 25 Noroeste 42 Noroeste 0 -- -- 79
2018-01-11 17:00:00 9.8 32 Noroeste 43 Noroeste 0 -- -- 75
2018-01-11 16:00:00 9.8 30 Noroeste 41 Noroeste 0 -- -- 76
2018-01-11 15:00:00 10 31 Oeste 41 Oeste 0 -- -- 79
2018-01-11 14:00:00 9.2 31 Oeste 42 Oeste 0 -- -- 87
2018-01-11 13:00:00 7.4 24 Oeste 37 Noroeste 0 -- -- 95
2018-01-11 12:00:00 7.2 27 Oeste 37 Oeste 0 -- -- 97
2018-01-11 11:00:00 6.4 23 Oeste 30 Oeste 0 -- -- 98
2018-01-11 10:00:00 4.9 19 Oeste 30 Oeste 0 -- -- 99
2018-01-11 09:00:00 4.4 15 Oeste 23 Oeste 0 -- -- 99
2018-01-11 08:00:00 3.9 12 Oeste 22 Oeste 0 -- -- 98
2018-01-11 07:00:00 4 15 Oeste 26 Oeste 0 -- -- 98
2018-01-11 06:00:00 4 18 Oeste 24 Oeste 0.2 -- -- 98
2018-01-11 05:00:00 3.4 13 Oeste 17 Oeste 0 -- -- 97
2018-01-11 04:00:00 3.4 15 Oeste 17 Oeste 0 -- -- 98
2018-01-11 03:00:00 4.1 15 Oeste 22 Oeste 0 -- -- 97
2018-01-11 02:00:00 4 13 Oeste 19 Oeste 0 -- -- 96
2018-01-11 01:00:00 4.6 15 Oeste 21 Oeste 0 -- -- 96
2018-01-11 00:00:00 5.6 18 Oeste 27 Oeste 0 -- -- 94
2018-01-10 23:00:00 6 13 Noroeste 33 Oeste 0 -- -- 94
2018-01-10 22:00:00 7 22 Noroeste 30 Noroeste 0 -- -- 93
2018-01-10 21:00:00 7.5 23 Oeste 41 Oeste 0 -- -- 94
2018-01-10 20:00:00 8 27 Oeste 36 Oeste 0 -- -- 96
2018-01-10 19:00:00 8.4 23 Oeste 49 Oeste 0 -- -- 95
2018-01-10 18:00:00 9.5 36 Oeste 50 Oeste 1.2 -- -- 94
2018-01-10 17:00:00 11.3 31 Sudoeste 45 Sudoeste 0 -- -- 83
2018-01-10 16:00:00 11.7 30 Sudoeste 52 Sudoeste 0 -- -- 79
2018-01-10 15:00:00 11.9 36 Sudoeste 50 Sudoeste 0 -- -- 82
2018-01-10 14:00:00 11.1 29 Oeste 43 Oeste 0 -- -- 85
2018-01-10 13:00:00 10.3 28 Oeste 40 Oeste 0 -- -- 87
2018-01-10 12:00:00 9.6 27 Oeste 42 Oeste 0 -- -- 96
2018-01-10 11:00:00 8.2 13 Sudoeste 22 Sudoeste 0 -- -- 99
2018-01-10 10:00:00 7.5 14 Oeste 23 Oeste 0 -- -- 100
2018-01-10 09:00:00 7.3 13 Oeste 19 Oeste 0 -- -- 99
2018-01-10 08:00:00 7.1 14 Oeste 21 Oeste 0 -- -- 99
2018-01-10 07:00:00 6.9 15 Oeste 21 Oeste 0 -- -- 99
2018-01-10 06:00:00 6.7 15 Oeste 27 Oeste 0 -- -- 99
2018-01-10 05:00:00 6.8 16 Noroeste 31 Noroeste 0 -- -- 99
2018-01-10 04:00:00 7.6 18 Oeste 26 Oeste 0 -- -- 98
2018-01-10 03:00:00 8.1 21 Oeste 39 Oeste 0.2 -- -- 98
2018-01-10 02:00:00 8.8 18 Oeste 25 Oeste 0 -- -- 97
2018-01-10 01:00:00 8.8 13 Sudoeste 22 Sudoeste 0 -- -- 96
2018-01-10 00:00:00 8.8 8 Sudoeste 13 Sudoeste 0 -- -- 95
2018-01-09 23:00:00 8.9 13 Sur 33 Sur 0 -- -- 94
2018-01-09 22:00:00 8.8 28 Sur 40 Sur 0 -- -- 94
2018-01-09 21:00:00 8.5 31 Sur 52 Sur 0 -- -- 94
2018-01-09 20:00:00 8.8 37 Sur 58 Sur 0 -- -- 93
2018-01-09 19:00:00 8.4 32 Sur 46 Sur 0 -- -- 93
2018-01-09 18:00:00 8 29 Sur 44 Sur 0 -- -- 94
2018-01-09 17:00:00 7.3 30 Sudeste 47 Sudeste 1.4 -- -- 93
2018-01-09 16:00:00 7.1 35 Sur 50 Sur 0.8 -- -- 94
2018-01-09 15:00:00 5.9 23 Sudeste 39 Sur 1 -- -- 96
2018-01-09 14:00:00 5.9 29 Sur 39 Sur 1 -- -- 94
2018-01-09 13:00:00 6.1 28 Sur 38 Sur 0.6 -- -- 91
2018-01-09 12:00:00 6.3 21 Sur 30 Sur 0 -- -- 86
2018-01-09 11:00:00 5.3 13 Sudeste 27 Sudeste 0 -- -- 79
2018-01-09 10:00:00 4.3 15 Sur 23 Sudeste 0 -- -- 84
2018-01-09 09:00:00 3.5 17 Sudeste 22 Sur 0 -- -- 86
2018-01-09 08:00:00 2.9 12 Sudeste 16 Sudeste 0 -- -- 87
2018-01-09 07:00:00 2.8 14 Sudeste 17 Sudeste 0 -- -- 86
2018-01-09 06:00:00 2.3 10 Sudeste 14 Sudeste 0 -- -- 85
2018-01-09 05:00:00 1.7 14 Sudeste 21 Sudeste 0 -- -- 87
2018-01-09 04:00:00 2.3 13 Sudeste 15 Sudeste 0 -- -- 84
2018-01-09 03:00:00 2.6 3 Sudeste 4 Sudeste 0 -- -- 88
2018-01-09 02:00:00 2.3 2 Sur 6 Sur 0 -- -- 90
2018-01-09 01:00:00 2.7 3 Sudoeste 5 Sudoeste 0 -- -- 91
2018-01-09 00:00:00 2.3 3 Sur 6 Sudoeste 0 -- -- 92
2018-01-08 23:00:00 2.5 4 Sudoeste 6 Sudoeste 0 -- -- 92
2018-01-08 22:00:00 2.7 3 Oeste 9 Norte 0 -- -- 91
2018-01-08 21:00:00 2.8 8 Norte 12 Norte 0 -- -- 90
2018-01-08 20:00:00 3.7 7 Nordeste 14 Norte 0 -- -- 87
2018-01-08 19:00:00 4.9 10 Norte 14 Norte 0 -- -- 85
2018-01-08 18:00:00 5.5 11 Norte 22 Norte 0 -- -- 84
2018-01-08 17:00:00 6.1 16 Nordeste 23 Norte 0 -- -- 79
2018-01-08 16:00:00 5.9 13 Nordeste 21 Nordeste 0 -- -- 78
2018-01-08 15:00:00 5.2 14 Nordeste 23 Nordeste 0 -- -- 83
2018-01-08 14:00:00 4.3 14 Nordeste 24 Nordeste 0 -- -- 88
2018-01-08 13:00:00 3.4 13 Nordeste 19 Nordeste 0 -- -- 92
2018-01-08 12:00:00 2.5 14 Norte 20 Norte 0 -- -- 96
2018-01-08 11:00:00 2.5 14 Nordeste 25 Nordeste 0 -- -- 96
2018-01-08 10:00:00 1.8 12 Este 25 Este 0 -- -- 97
2018-01-08 09:00:00 1.3 20 Este 27 Nordeste 0 -- -- 97
2018-01-08 08:00:00 1.8 15 Nordeste 20 Nordeste 0.4 -- -- 96
2018-01-08 07:00:00 2.3 10 Nordeste 12 Nordeste 0.6 -- -- 94
2018-01-08 06:00:00 2.5 2 Sudeste 12 Sudeste 1.2 -- -- 93
2018-01-08 05:00:00 2.6 8 Sudeste 12 Sur 1 -- -- 94
2018-01-08 04:00:00 3.1 9 Sur 13 Sur 1.8 -- -- 95
2018-01-08 03:00:00 3.5 5 Este 10 Sudeste 0.6 -- -- 96
2018-01-08 02:00:00 3.6 8 Este 10 Este 0 -- -- 95
2018-01-08 01:00:00 3.5 6 Este 10 Este 0.4 -- -- 94
2018-01-08 00:00:00 3.7 5 Este 12 Este 0 -- -- 94
2018-01-07 23:00:00 4.2 3 Oeste 6 Oeste 0 -- -- 84
2018-01-07 22:00:00 4.1 4 Sudoeste 8 Sudoeste 0 -- -- 84
2018-01-07 21:00:00 3.9 3 Sudoeste 9 Sudoeste 0 -- -- 86
2018-01-07 20:00:00 3.8 6 Sudoeste 15 Sudoeste 0 -- -- 87
2018-01-07 19:00:00 3.8 5 Sudoeste 14 Oeste 0 -- -- 89
2018-01-07 18:00:00 4 12 Oeste 19 Oeste 0 -- -- 86
2018-01-07 17:00:00 4.7 14 Oeste 22 Oeste 0 -- -- 83
2018-01-07 16:00:00 4.7 15 Oeste 22 Oeste 0 -- -- 82
2018-01-07 15:00:00 4.2 20 Noroeste 31 Noroeste 0.2 -- -- 82
2018-01-07 14:00:00 4.5 15 Oeste 24 Oeste 0 -- -- 86
2018-01-07 13:00:00 3.5 18 Noroeste 27 Oeste 0 -- -- 90
2018-01-07 12:00:00 2.7 19 Noroeste 30 Noroeste 0 -- -- 94
2018-01-07 11:00:00 2.5 21 Noroeste 28 Noroeste 0.2 -- -- 93
2018-01-07 10:00:00 1.6 19 Oeste 25 Oeste 0 -- -- 94
2018-01-07 09:00:00 1.4 18 Oeste 33 Noroeste 0 -- -- 95
2018-01-07 08:00:00 1.3 19 Oeste 27 Oeste 0 -- -- 97
2018-01-07 07:00:00 1.1 20 Oeste 31 Oeste 0.2 -- -- 96
2018-01-07 06:00:00 1.2 15 Oeste 21 Oeste 0 -- -- 96
2018-01-07 05:00:00 1 13 Oeste 23 Oeste 0 -- -- 96
2018-01-07 04:00:00 0.6 15 Oeste 21 Sudoeste 0 -- -- 95
2018-01-07 03:00:00 0 14 Sudoeste 23 Oeste 0 -- -- 94
2018-01-07 02:00:00 0.2 15 Oeste 21 Oeste 0 -- -- 93
2018-01-07 01:00:00 0.5 15 Oeste 20 Oeste 0 -- -- 91
2018-01-07 00:00:00 0.9 15 Oeste 19 Oeste 0 -- -- 90
2018-01-06 23:00:00 1.4 16 Oeste 21 Oeste 0 -- -- 87
2018-01-06 22:00:00 1.8 13 Oeste 26 Oeste 0 -- -- 85
2018-01-06 21:00:00 2.4 16 Noroeste 26 Oeste 0 -- -- 83
2018-01-06 20:00:00 3.5 19 Oeste 27 Oeste 0 -- -- 75
2018-01-06 19:00:00 4.4 23 Oeste 34 Oeste 0 -- -- 71
2018-01-06 18:00:00 5.8 30 Noroeste 42 Noroeste 0 -- -- 63
2018-01-06 17:00:00 6.9 35 Noroeste 46 Noroeste 0 -- -- 61
2018-01-06 16:00:00 6.4 35 Noroeste 47 Noroeste 0 -- -- 68
2018-01-06 15:00:00 7.1 37 Noroeste 50 Noroeste 0 -- -- 64
2018-01-06 14:00:00 6.8 33 Noroeste 43 Oeste 0 -- -- 64
2018-01-06 13:00:00 6 28 Noroeste 39 Noroeste 0 -- -- 77
2018-01-06 12:00:00 5 28 Noroeste 40 Oeste 0 -- -- 79
2018-01-06 11:00:00 4.3 26 Noroeste 33 Noroeste 0 -- -- 87
2018-01-06 10:00:00 3.6 24 Noroeste 33 Noroeste 0 -- -- 91
2018-01-06 09:00:00 3.6 23 Noroeste 35 Noroeste 0 -- -- 93
2018-01-06 08:00:00 3.8 28 Noroeste 36 Noroeste 0 -- -- 97
2018-01-06 07:00:00 4.4 26 Noroeste 36 Norte 0 -- -- 97
2018-01-06 06:00:00 4.6 23 Norte 35 Noroeste 0.4 -- -- 98
2018-01-06 05:00:00 5.6 21 Noroeste 30 Noroeste 0.8 -- -- 97
2018-01-06 04:00:00 5.5 9 Norte 12 Norte 0.2 -- -- 96
2018-01-06 03:00:00 5.5 5 Norte 13 Este 0.4 -- -- 95
2018-01-06 02:00:00 5.5 7 Nordeste 10 Nordeste 0 -- -- 95
2018-01-06 01:00:00 5.5 6 Norte 31 Noroeste 1.6 -- -- 97
2018-01-06 00:00:00 6.2 23 Norte 33 Noroeste 2.4 -- -- 97
2018-01-05 23:00:00 7.2 16 Oeste 23 Oeste 1.6 -- -- 96
2018-01-05 22:00:00 7.7 13 Sudoeste 17 Sudoeste 0.4 -- -- 95
2018-01-05 21:00:00 7.8 7 Sudoeste 19 Sudoeste 0.8 -- -- 96
2018-01-05 20:00:00 7.9 14 Sur 20 Sur 6.8 -- -- 97
2018-01-05 19:00:00 7.8 14 Sur 17 Sur 2.4 -- -- 97
2018-01-05 18:00:00 8 3 Oeste 30 Oeste 4.2 -- -- 96
2018-01-05 17:00:00 9.7 23 Sudoeste 45 Sudoeste 1.2 -- -- 90
2018-01-05 16:00:00 10.8 26 Sur 52 Sur 0 -- -- 80
2018-01-05 15:00:00 12.3 33 Sur 49 Sur 0 -- -- 77
2018-01-05 14:00:00 11.2 32 Sur 50 Sudoeste 0 -- -- 83
2018-01-05 13:00:00 10.5 36 Sudoeste 49 Sudoeste 0 -- -- 84
2018-01-05 12:00:00 10.6 35 Sur 49 Sur 0 -- -- 86
2018-01-05 11:00:00 10.3 33 Sudoeste 48 Sudoeste 0 -- -- 84
2018-01-05 10:00:00 8.5 20 Sudoeste 26 Sudoeste 0.2 -- -- 97
2018-01-05 09:00:00 8.1 11 Sudoeste 32 Sudoeste 0 -- -- 97
2018-01-05 08:00:00 8.1 23 Sudoeste 31 Sudoeste 0 -- -- 97
2018-01-05 07:00:00 7.8 11 Sur 22 Oeste 0 -- -- 97
2018-01-05 06:00:00 8.3 17 Oeste 30 Sudoeste 0 -- -- 93
2018-01-05 05:00:00 9.1 21 Sudoeste 28 Sudoeste 0 -- -- 87
2018-01-05 04:00:00 9.3 21 Sudoeste 29 Sudoeste 0 -- -- 85
2018-01-05 03:00:00 9.5 25 Sudoeste 32 Sudoeste 0 -- -- 86
2018-01-05 02:00:00 9.7 14 Sudoeste 18 Sudoeste 0 -- -- 96
2018-01-05 01:00:00 10 14 Oeste 23 Sudoeste 0 -- -- 96
2018-01-05 00:00:00 10 9 Oeste 17 Oeste 0 -- -- 97
2018-01-04 23:00:00 9.9 10 Sudoeste 18 Sudoeste 0 -- -- 96
2018-01-04 22:00:00 10.1 9 Sudoeste 14 Sudoeste 0 -- -- 96
2018-01-04 21:00:00 10.6 12 Sudoeste 15 Oeste 0 -- -- 95
2018-01-04 20:00:00 11 7 Oeste 13 Oeste 0 -- -- 94
2018-01-04 19:00:00 11.3 9 Oeste 12 Oeste 0 -- -- 91
2018-01-04 18:00:00 11.6 7 Sudoeste 15 Oeste 0 -- -- 91
2018-01-04 17:00:00 11.8 9 Oeste 13 Oeste 0 -- -- 89
2018-01-04 16:00:00 11.5 8 Sudoeste 13 Sudoeste 0 -- -- 93
2018-01-04 15:00:00 10.9 10 Oeste 19 Oeste 0 -- -- 97
2018-01-04 14:00:00 10.6 12 Oeste 22 Noroeste 0 -- -- 98
2018-01-04 13:00:00 10.6 13 Noroeste 19 Oeste 0 -- -- 98
2018-01-04 12:00:00 10.2 13 Noroeste 20 Noroeste 0 -- -- 98
2018-01-04 11:00:00 10.4 14 Noroeste 18 Noroeste 0 -- -- 98
2018-01-04 10:00:00 10.4 11 Noroeste 15 Oeste 0 -- -- 97
2018-01-04 09:00:00 10.2 9 Noroeste 17 Oeste 0 -- -- 96
2018-01-04 08:00:00 10.6 9 Noroeste 13 Noroeste 0 -- -- 96
2018-01-04 07:00:00 10.6 10 Oeste 15 Oeste 0 -- -- 96
2018-01-04 06:00:00 10.9 7 Noroeste 15 Noroeste 0 -- -- 94
2018-01-04 05:00:00 11.2 10 Noroeste 15 Noroeste 0 -- -- 94
2018-01-04 04:00:00 11.4 12 Noroeste 21 Noroeste 0 -- -- 93
2018-01-04 03:00:00 11.5 12 Noroeste 20 Noroeste 0 -- -- 93
2018-01-04 02:00:00 11.5 9 Noroeste 15 Noroeste 0 -- -- 93
2018-01-04 01:00:00 11.5 7 Noroeste 16 Noroeste 0 -- -- 93
2018-01-04 00:00:00 11.4 6 Noroeste 17 Noroeste 0 -- -- 94
2018-01-03 23:00:00 11.3 6 Noroeste 17 Noroeste 0 -- -- 94
2018-01-03 22:00:00 11.4 11 Noroeste 17 Noroeste 0 -- -- 93
2018-01-03 21:00:00 11.7 11 Noroeste 21 Noroeste 0 -- -- 90
2018-01-03 20:00:00 11.7 11 Noroeste 24 Noroeste 0 -- -- 91
2018-01-03 19:00:00 11.7 13 Noroeste 22 Norte 0 -- -- 89
2018-01-03 18:00:00 12.2 12 Norte 17 Norte 0 -- -- 89
2018-01-03 17:00:00 12.6 11 Norte 17 Noroeste 0 -- -- 89
2018-01-03 16:00:00 12.7 14 Norte 20 Norte 0 -- -- 90
2018-01-03 15:00:00 12.6 8 Noroeste 15 Oeste 0 -- -- 90
2018-01-03 14:00:00 12.2 5 Oeste 17 Noroeste 0 -- -- 92
2018-01-03 13:00:00 11.6 12 Noroeste 18 Noroeste 0 -- -- 97
2018-01-03 12:00:00 11.2 8 Noroeste 13 Noroeste 0 -- -- 99
2018-01-03 11:00:00 10.8 3 Norte 13 Noroeste 0 -- -- 99
2018-01-03 10:00:00 10.1 4 Sur 8 Oeste 0 -- -- 99
2018-01-03 09:00:00 9.8 6 Noroeste 18 Noroeste 0 -- -- 99
2018-01-03 08:00:00 9.9 11 Noroeste 18 Noroeste 0.2 -- -- 99
2018-01-03 07:00:00 9.8 9 Noroeste 17 Noroeste 0 -- -- 98
2018-01-03 06:00:00 9.6 13 Noroeste 19 Noroeste 0 -- -- 98
2018-01-03 05:00:00 9.5 10 Noroeste 15 Noroeste 0 -- -- 98
2018-01-03 04:00:00 9.5 5 Noroeste 8 Oeste 0 -- -- 97
2018-01-03 03:00:00 9.6 4 Oeste 10 Oeste 0 -- -- 96
2018-01-03 02:00:00 9.6 5 Oeste 9 Oeste 0 -- -- 95
2018-01-03 01:00:00 9.4 3 Oeste 8 Oeste 0 -- -- 96
2018-01-03 00:00:00 9.1 6 Oeste 15 Noroeste 0 -- -- 96
2018-01-02 23:00:00 8.8 7 Oeste 15 Noroeste 0 -- -- 96
2018-01-02 22:00:00 8.6 14 Noroeste 19 Noroeste 0 -- -- 95
2018-01-02 21:00:00 8.8 12 Norte 22 Noroeste 0 -- -- 93
2018-01-02 20:00:00 9.3 15 Norte 19 Norte 0 -- -- 92
2018-01-02 19:00:00 10.3 11 Norte 19 Noroeste 0 -- -- 90
2018-01-02 18:00:00 11.5 13 Noroeste 18 Norte 0 -- -- 83
2018-01-02 17:00:00 12.4 11 Noroeste 17 Oeste 0 -- -- 79
2018-01-02 16:00:00 12.7 9 Oeste 15 Oeste 0 -- -- 78
2018-01-02 15:00:00 11.5 8 Noroeste 17 Noroeste 0 -- -- 83
2018-01-02 14:00:00 11.3 13 Oeste 19 Oeste 0 -- -- 83
2018-01-02 13:00:00 10.2 13 Noroeste 20 Oeste 0 -- -- 86
2018-01-02 12:00:00 9.6 13 Oeste 18 Oeste 0 -- -- 89
2018-01-02 11:00:00 7.9 9 Sudoeste 14 Oeste 0 -- -- 96
2018-01-02 10:00:00 5.9 7 Sudoeste 10 Sudoeste 0 -- -- 99
2018-01-02 09:00:00 4.5 8 Sudoeste 10 Sudoeste 0 -- -- 98
2018-01-02 08:00:00 4.7 4 Sudoeste 6 Oeste 0 -- -- 97
2018-01-02 07:00:00 4.9 4 Sudoeste 6 Oeste 0.2 -- -- 97
2018-01-02 06:00:00 5.3 5 Oeste 9 Sudoeste 0 -- -- 97
2018-01-02 05:00:00 5.3 5 Sudoeste 10 Sudoeste 0 -- -- 97
2018-01-02 04:00:00 5.6 5 Sudoeste 10 Oeste 0 -- -- 96
2018-01-02 03:00:00 5.2 6 Sudoeste 10 Oeste 0 -- -- 95
2018-01-02 02:00:00 5.3 4 Sudoeste 11 Oeste 0 -- -- 93
2018-01-02 01:00:00 5.7 5 Oeste 13 Oeste 0 -- -- 93
2018-01-02 00:00:00 5.7 8 Noroeste 13 Noroeste 0 -- -- 94
2018-01-01 23:00:00 5.8 8 Oeste 14 Noroeste 0 -- -- 91
2018-01-01 22:00:00 6.7 9 Noroeste 12 Noroeste 0 -- -- 87
2018-01-01 21:00:00 7.2 8 Noroeste 14 Norte 0 -- -- 86
2018-01-01 20:00:00 8.6 12 Norte 17 Norte 0 -- -- 84
2018-01-01 19:00:00 8.4 11 Norte 15 Norte 0 -- -- 79
2018-01-01 18:00:00 9.6 8 Noroeste 19 Noroeste 0 -- -- 75
2018-01-01 17:00:00 11 12 Noroeste 20 Oeste 0 -- -- 66
2018-01-01 16:00:00 11.4 13 Oeste 22 Oeste 0 -- -- 62
2018-01-01 15:00:00 11.2 17 Oeste 25 Oeste 0 -- -- 54
2018-01-01 14:00:00 10.4 16 Oeste 23 Oeste 0 -- -- 65
2018-01-01 13:00:00 9.4 10 Oeste 17 Oeste 0 -- -- 79
2018-01-01 12:00:00 7.7 5 Oeste 12 Oeste 0 -- -- 85
2018-01-01 11:00:00 5.9 4 Sudoeste 11 Oeste 0 -- -- 87
2018-01-01 10:00:00 4 8 Oeste 10 Oeste 0 -- -- 86
2018-01-01 09:00:00 5.3 4 Oeste 8 Sudeste 0 -- -- 80
2018-01-01 08:00:00 4.8 7 Sudeste 10 Sudeste 0 -- -- 91
2018-01-01 07:00:00 4.4 7 Sudeste 15 Nordeste 0 -- -- 94
2018-01-01 06:00:00 4.8 8 Este 13 Nordeste 0 -- -- 94
2018-01-01 05:00:00 5.7 6 Nordeste 9 Nordeste 0 -- -- 95
2018-01-01 04:00:00 5.8 4 Sudeste 8 Sudeste 0 -- -- 95
2018-01-01 03:00:00 5.7 3 Sur 8 Noroeste 0 -- -- 96
2018-01-01 02:00:00 5.8 5 Norte 10 Noroeste 0 -- -- 96
2018-01-01 01:00:00 5.6 6 Sudoeste 13 Oeste 0.2 -- -- 96
2018-01-01 00:00:00 6 8 Noroeste 12 Oeste 0 -- -- 95
2017-12-31 23:00:00 6.4 7 Oeste 16 Noroeste 0 -- -- 95
2017-12-31 22:00:00 6.7 10 Noroeste 17 Oeste 0 -- -- 96
2017-12-31 21:00:00 7.7 12 Noroeste 22 Noroeste 0 -- -- 95
2017-12-31 20:00:00 7.9 14 Noroeste 20 Noroeste 0 -- -- 97
2017-12-31 19:00:00 9.6 16 Noroeste 38 Noroeste 0.2 -- -- 97
2017-12-31 18:00:00 10.6 26 Oeste 39 Oeste 0 -- -- 94
2017-12-31 17:00:00 11.1 27 Oeste 48 Sudoeste 0 -- -- 90
2017-12-31 16:00:00 12.3 32 Oeste 46 Oeste 0 -- -- 78
2017-12-31 15:00:00 12.3 30 Oeste 41 Sudoeste 0 -- -- 76
2017-12-31 14:00:00 12 33 Sudoeste 45 Sudoeste 0 -- -- 81
2017-12-31 13:00:00 11.5 27 Oeste 37 Oeste 0 -- -- 80
2017-12-31 12:00:00 11.7 25 Sudoeste 32 Sudoeste 0 -- -- 79
2017-12-31 11:00:00 10.8 21 Sudoeste 30 Sudoeste 0 -- -- 85
2017-12-31 10:00:00 9.6 12 Sudoeste 17 Sudoeste 0 -- -- 93
2017-12-31 09:00:00 8.3 6 Sudoeste 8 Sudoeste 0 -- -- 95
2017-12-31 08:00:00 7.9 5 Sudoeste 8 Sudoeste 0 -- -- 95
2017-12-31 07:00:00 8.4 6 Sudoeste 9 Sudoeste 0 -- -- 94
2017-12-31 06:00:00 8.1 5 Sur 8 Sudeste 0 -- -- 96
2017-12-31 05:00:00 7.8 9 Sudeste 10 Sudeste 0 -- -- 96
2017-12-31 04:00:00 7.9 3 Sudoeste 5 Sudoeste 0 -- -- 95
2017-12-31 03:00:00 7.9 3 Sur 4 Sur 0 -- -- 95
2017-12-31 02:00:00 8.1 3 Oeste 6 Sudoeste 0 -- -- 93
2017-12-31 01:00:00 8.7 0 Calma 3 Oeste 0 -- -- 90